Time;durP1;ratioP1;P1;durP2;ratioP2;P2;SDS_P1;SDS_P2;PMS_P1;PMS_P2;Temp;Humidity;BMP_temperature;BMP_pressure;BME280_temperature;BME280_humidity;BME280_pressure;Samples;Min_cycle;Max_cycle;Signal;HPM_P1;HPM_P2
2023/05/11 00:01:05;;;;;;;1.70;1.43;;;;;;;10.92;100.00;99863.31;5073759;28;20219;-71
2023/05/11 00:03:31;;;;;;;2.13;1.30;;;;;;;11.01;100.00;99855.97;5108606;27;20183;-71
2023/05/11 00:05:57;;;;;;;1.53;1.43;;;;;;;10.97;100.00;99860.47;5114279;28;20198;-71
2023/05/11 00:08:22;;;;;;;1.33;1.23;;;;;;;10.95;100.00;99872.59;5110116;28;20262;-71
2023/05/11 00:10:48;;;;;;;3.07;1.40;;;;;;;10.94;100.00;99868.34;5087979;27;20245;-71
2023/05/11 00:13:13;;;;;;;2.43;1.30;;;;;;;10.89;100.00;99853.22;5118641;27;20298;-70
2023/05/11 00:15:38;;;;;;;2.70;1.30;;;;;;;10.94;100.00;99866.63;5114285;28;20272;-70
2023/05/11 00:18:03;;;;;;;1.93;1.50;;;;;;;11.01;100.00;99858.53;5094963;28;20232;-70
2023/05/11 00:20:29;;;;;;;3.63;1.37;;;;;;;10.97;100.00;99863.88;5094072;27;20226;-71
2023/05/11 00:22:54;;;;;;;1.63;1.30;;;;;;;10.97;100.00;99871.59;5125613;27;20358;-69
2023/05/11 00:25:19;;;;;;;6.30;1.60;;;;;;;10.88;100.00;99872.16;5113869;28;20203;-69
2023/05/11 00:27:45;;;;;;;1.90;1.50;;;;;;;10.95;100.00;99862.31;5112938;28;20203;-71
2023/05/11 00:30:13;;;;;;;2.10;1.47;;;;;;;10.92;100.00;99862.50;5104066;27;20667;-71
2023/05/11 00:32:39;;;;;;;1.40;1.23;;;;;;;10.93;100.00;99861.59;5126937;27;20179;-70
2023/05/11 00:35:05;;;;;;;1.47;1.37;;;;;;;10.87;100.00;99857.63;5095220;28;20178;-71
2023/05/11 00:37:30;;;;;;;5.00;1.53;;;;;;;10.86;100.00;99860.28;5113061;28;20187;-71
2023/05/11 00:39:55;;;;;;;3.23;1.40;;;;;;;10.86;100.00;99857.72;5111192;28;20178;-71
2023/05/11 00:42:20;;;;;;;2.67;1.40;;;;;;;10.73;100.00;99853.31;5065412;28;20216;-71
2023/05/11 00:44:46;;;;;;;3.33;1.63;;;;;;;10.70;100.00;99857.78;5113776;28;20199;-71
2023/05/11 00:47:11;;;;;;;1.63;1.40;;;;;;;10.62;100.00;99853.94;5112682;28;20182;-71
2023/05/11 00:49:36;;;;;;;2.90;1.60;;;;;;;10.59;100.00;99855.84;5095683;28;20192;-72
2023/05/11 00:52:01;;;;;;;1.87;1.20;;;;;;;10.51;100.00;99852.91;5100983;27;20696;-71
2023/05/11 00:54:27;;;;;;;2.83;1.60;;;;;;;10.42;100.00;99846.53;5114270;27;20235;-71
2023/05/11 00:56:52;;;;;;;1.67;1.20;;;;;;;10.30;100.00;99855.75;5113137;28;20180;-71
2023/05/11 00:59:18;;;;;;;13.43;1.67;;;;;;;10.30;100.00;99845.47;5100280;28;20261;-71
2023/05/11 01:01:43;;;;;;;1.30;1.20;;;;;;;10.27;100.00;99848.22;5099379;27;20222;-71
2023/05/11 01:04:09;;;;;;;2.30;1.43;;;;;;;10.27;100.00;99848.22;5102163;27;20199;-71
2023/05/11 01:06:59;;;;;;;1.80;1.70;;;;;;;10.13;100.00;99855.00;5094943;28;20186;-71
2023/05/11 01:09:58;;;;;;;3.00;1.93;;;;;;;10.03;100.00;99861.53;5075524;28;20545;-71
2023/05/11 01:12:32;;;;;;;3.90;1.57;;;;;;;10.02;100.00;99847.88;5098630;28;20318;-70
2023/05/11 01:15:23;;;;;;;2.80;1.30;;;;;;;9.91;100.00;99857.09;5093432;28;20187;-68
2023/05/11 01:17:52;;;;;;;1.23;1.13;;;;;;;9.96;100.00;99855.94;5093902;28;20180;-70
2023/05/11 01:20:23;;;;;;;7.83;1.30;;;;;;;9.97;100.00;99852.47;5081426;28;20186;-71
2023/05/11 01:23:09;;;;;;;2.53;1.10;;;;;;;9.96;100.00;99847.38;5089718;28;20223;-70
2023/05/11 01:25:47;;;;;;;1.60;1.50;;;;;;;9.87;100.00;99843.59;5093389;28;20257;-70
2023/05/11 01:28:48;;;;;;;3.30;1.53;;;;;;;9.75;100.00;99847.69;5094071;28;20172;-70
2023/05/11 01:31:16;;;;;;;2.97;1.13;;;;;;;9.80;100.00;99857.72;5097579;27;20838;-70
2023/05/11 01:33:56;;;;;;;2.33;1.47;;;;;;;9.69;100.00;99850.59;5093651;28;20191;-71
2023/05/11 01:36:27;;;;;;;2.90;1.90;;;;;;;9.73;100.00;99846.94;5109957;27;20179;-71
2023/05/11 01:38:53;;;;;;;2.40;1.47;;;;;;;9.72;100.00;99849.59;5093876;28;20187;-71
2023/05/11 01:41:23;;;;;;;3.53;1.60;;;;;;;9.72;100.00;99850.41;5073289;28;20307;-70
2023/05/11 01:43:54;;;;;;;1.80;1.70;;;;;;;9.61;100.00;99855.31;5094149;28;20184;-71
2023/05/11 01:46:23;;;;;;;4.07;1.93;;;;;;;9.57;100.00;99851.25;5062587;28;20172;-71
2023/05/11 01:48:51;;;;;;;3.77;1.70;;;;;;;9.54;100.00;99857.38;5094214;28;20184;-71
2023/05/11 01:51:18;;;;;;;2.70;1.80;;;;;;;9.56;100.00;99850.41;5092844;27;20242;-71
2023/05/11 01:53:45;;;;;;;3.60;1.43;;;;;;;9.50;100.00;99849.03;5091512;27;20198;-71
2023/05/11 01:56:11;;;;;;;2.07;1.60;;;;;;;9.52;100.00;99856.63;5115843;27;20384;-72
2023/05/11 01:58:39;;;;;;;3.87;1.87;;;;;;;9.43;100.00;99854.56;5112661;28;20175;-71
2023/05/11 02:01:05;;;;;;;2.37;1.70;;;;;;;9.32;100.00;99855.97;5118250;27;20231;-71
2023/05/11 02:03:33;;;;;;;2.90;1.73;;;;;;;9.32;100.00;99858.53;5086500;28;20540;-72
2023/05/11 02:06:00;;;;;;;2.70;1.73;;;;;;;9.41;100.00;99864.09;5103339;28;20206;-72
2023/05/11 02:08:28;;;;;;;4.03;1.97;;;;;;;9.37;100.00;99859.09;5093257;28;20175;-72
2023/05/11 02:10:56;;;;;;;3.20;1.73;;;;;;;9.41;100.00;99859.78;5109221;27;20230;-71
2023/05/11 02:13:22;;;;;;;2.87;1.90;;;;;;;9.44;100.00;99857.06;5098874;28;20704;-71
2023/05/11 02:15:51;;;;;;;1.50;1.40;;;;;;;9.39;100.00;99860.75;5086929;28;20480;-71
2023/05/11 02:18:18;;;;;;;3.20;1.70;;;;;;;9.33;100.00;99867.88;5070208;28;20234;-71
2023/05/11 02:20:46;;;;;;;1.73;1.63;;;;;;;9.40;100.00;99870.13;5080070;28;20231;-71
2023/05/11 02:23:12;;;;;;;1.40;1.30;;;;;;;9.31;100.00;99864.56;5095637;28;20226;-71
2023/05/11 02:25:39;;;;;;;2.07;1.73;;;;;;;9.33;100.00;99869.63;5117477;27;20207;-72
2023/05/11 02:28:05;;;;;;;1.67;1.47;;;;;;;9.32;100.00;99866.22;5103211;28;20179;-71
2023/05/11 02:30:31;;;;;;;4.90;2.93;;;;;;;9.22;100.00;99867.63;5081505;27;20542;-71
2023/05/11 02:33:03;;;;;;;3.37;2.20;;;;;;;9.35;100.00;99872.94;5099855;28;20262;-71
2023/05/11 02:35:32;;;;;;;2.50;1.73;;;;;;;9.34;100.00;99864.41;5111728;28;20175;-70
2023/05/11 02:38:00;;;;;;;2.13;1.70;;;;;;;9.31;100.00;99861.19;5112258;28;20179;-71
2023/05/11 02:40:32;;;;;;;2.83;1.57;;;;;;;9.28;100.00;99866.47;5094406;28;20269;-71
2023/05/11 02:43:05;;;;;;;3.40;1.83;;;;;;;9.33;100.00;99864.50;5083289;28;20655;-71
2023/05/11 02:45:33;;;;;;;3.27;1.83;;;;;;;9.36;100.00;99869.47;5108564;28;20281;-71
2023/05/11 02:48:04;;;;;;;4.30;1.97;;;;;;;9.36;100.00;99867.75;5104301;28;20227;-70
2023/05/11 02:50:34;;;;;;;2.77;1.83;;;;;;;9.32;100.00;99865.41;5090697;27;20626;-70
2023/05/11 02:53:04;;;;;;;3.63;1.70;;;;;;;9.31;100.00;99872.25;5122087;27;20357;-71
2023/05/11 02:55:30;;;;;;;2.67;1.53;;;;;;;9.26;100.00;99865.72;5096853;28;20634;-71
2023/05/11 02:57:55;;;;;;;7.43;1.87;;;;;;;9.28;100.00;99863.88;5111540;28;20285;-71
2023/05/11 03:00:21;;;;;;;4.10;2.20;;;;;;;9.30;100.00;99864.66;5090145;27;22017;-71
2023/05/11 03:02:47;;;;;;;1.60;1.50;;;;;;;9.35;100.00;99863.50;5096827;28;20569;-70
2023/05/11 03:05:12;;;;;;;2.57;1.67;;;;;;;9.42;100.00;99866.56;5111171;28;20207;-71
2023/05/11 03:07:37;;;;;;;5.30;1.80;;;;;;;9.19;100.00;99865.22;5106308;28;20223;-70
2023/05/11 03:10:03;;;;;;;2.20;1.43;;;;;;;9.17;100.00;99861.91;5104402;28;20175;-72
2023/05/11 03:12:32;;;;;;;2.70;2.17;;;;;;;9.10;100.00;99865.69;5113398;27;20230;-71
2023/05/11 03:14:59;;;;;;;2.90;1.50;;;;;;;9.15;100.00;99867.13;5091343;28;20195;-70
2023/05/11 03:17:26;;;;;;;3.67;1.97;;;;;;;9.10;100.00;99860.56;5111096;28;20735;-71
2023/05/11 03:19:53;;;;;;;1.77;1.67;;;;;;;9.18;100.00;99861.81;5103297;28;20204;-71
2023/05/11 03:22:19;;;;;;;1.77;1.67;;;;;;;9.18;100.00;99866.16;5095639;27;20647;-71
2023/05/11 03:24:46;;;;;;;2.13;1.67;;;;;;;9.22;100.00;99866.81;5096114;28;20199;-71
2023/05/11 03:27:11;;;;;;;2.13;1.67;;;;;;;9.13;100.00;99868.94;5095549;28;20228;-71
2023/05/11 03:29:41;;;;;;;4.20;2.13;;;;;;;9.16;100.00;99875.66;5095922;28;20272;-71
2023/05/11 03:32:06;;;;;;;5.30;1.87;;;;;;;9.12;100.00;99869.84;5059519;28;20256;-71
2023/05/11 03:34:31;;;;;;;2.50;1.50;;;;;;;9.23;100.00;99863.31;5091687;28;20240;-70
2023/05/11 03:36:58;;;;;;;4.90;1.80;;;;;;;9.25;100.00;99864.06;5095564;28;20176;-72
2023/05/11 03:39:24;;;;;;;1.97;1.50;;;;;;;9.22;100.00;99866.81;5096024;28;20191;-70
2023/05/11 03:41:52;;;;;;;6.50;2.20;;;;;;;9.20;100.00;99872.84;5080380;28;20225;-71
2023/05/11 03:44:20;;;;;;;3.70;1.97;;;;;;;9.27;100.00;99872.53;5072263;28;20213;-71
2023/05/11 03:46:49;;;;;;;1.50;1.40;;;;;;;9.24;100.00;99876.09;5096056;28;20237;-71
2023/05/11 03:49:15;;;;;;;1.70;1.60;;;;;;;9.26;100.00;99871.69;5096037;28;20187;-71
2023/05/11 03:51:41;;;;;;;2.37;2.07;;;;;;;9.35;100.00;99870.38;5097616;28;20301;-71
2023/05/11 03:54:07;;;;;;;2.80;1.80;;;;;;;9.47;100.00;99874.03;5077197;28;20260;-72
2023/05/11 03:56:36;;;;;;;4.43;1.97;;;;;;;9.49;100.00;99869.66;5104894;28;20340;-73
2023/05/11 03:59:02;;;;;;;2.80;2.20;;;;;;;9.50;100.00;99869.56;5100630;28;20209;-72
2023/05/11 04:01:29;;;;;;;6.57;2.20;;;;;;;9.47;100.00;99877.41;5115925;27;20247;-72
2023/05/11 04:03:55;;;;;;;2.27;2.07;;;;;;;9.57;100.00;99866.66;5104928;27;20270;-71
2023/05/11 04:06:20;;;;;;;2.13;1.90;;;;;;;9.64;100.00;99863.66;5096151;28;20259;-72
2023/05/11 04:08:46;;;;;;;8.83;2.50;;;;;;;9.71;100.00;99864.16;5113537;28;20203;-71
2023/05/11 04:11:11;;;;;;;2.77;1.90;;;;;;;9.74;100.00;99864.00;5084719;28;20223;-70
2023/05/11 04:13:36;;;;;;;2.30;2.07;;;;;;;9.65;100.00;99874.75;5118027;27;20190;-70
2023/05/11 04:16:02;;;;;;;2.93;2.07;;;;;;;9.58;100.00;99858.06;5114176;28;20250;-71
2023/05/11 04:18:28;;;;;;;2.10;1.70;;;;;;;9.76;100.00;99867.31;5114251;28;20182;-71
2023/05/11 04:20:53;;;;;;;2.97;1.67;;;;;;;9.78;100.00;99864.66;5080266;27;20309;-72
2023/05/11 04:23:18;;;;;;;2.00;1.80;;;;;;;9.89;100.00;99870.03;5123455;27;20315;-72
2023/05/11 04:25:43;;;;;;;3.33;1.90;;;;;;;10.02;100.00;99865.03;5082113;28;20223;-72
2023/05/11 04:28:09;;;;;;;2.70;2.10;;;;;;;10.08;100.00;99862.13;5107763;28;20205;-72
2023/05/11 04:30:34;;;;;;;2.73;1.97;;;;;;;10.21;100.00;99869.97;5106748;27;20248;-70
2023/05/11 04:32:59;;;;;;;3.00;2.00;;;;;;;10.14;100.00;99866.91;5107127;28;20183;-72
2023/05/11 04:35:24;;;;;;;2.30;2.00;;;;;;;10.30;100.00;99864.28;5113936;28;20180;-72
2023/05/11 04:37:50;;;;;;;2.43;2.23;;;;;;;10.36;100.00;99872.56;5113312;28;20179;-71
2023/05/11 04:40:15;;;;;;;2.53;1.70;;;;;;;10.44;100.00;99868.69;5104791;27;20175;-72
2023/05/11 04:42:40;;;;;;;4.23;2.20;;;;;;;10.53;100.00;99876.78;5125685;27;20188;-72
2023/05/11 04:45:06;;;;;;;5.00;2.00;;;;;;;10.69;100.00;99882.69;5113476;28;20203;-70
2023/05/11 04:47:31;;;;;;;3.60;1.80;;;;;;;10.85;100.00;99876.66;5112554;28;20641;-72
2023/05/11 04:49:57;;;;;;;2.47;2.10;;;;;;;10.85;100.00;99877.47;5081967;28;20231;-73
2023/05/11 04:52:22;;;;;;;2.53;2.30;;;;;;;11.00;100.00;99880.03;5094557;28;20219;-72
2023/05/11 04:54:47;;;;;;;3.80;2.00;;;;;;;11.11;100.00;99881.06;5113469;28;20281;-72
2023/05/11 04:57:12;;;;;;;2.40;2.17;;;;;;;11.18;100.00;99881.50;5111887;28;20179;-72
2023/05/11 04:59:38;;;;;;;4.20;2.20;;;;;;;11.22;100.00;99889.88;5113783;28;20611;-73
2023/05/11 05:02:03;;;;;;;2.80;1.83;;;;;;;11.28;100.00;99881.78;5118650;27;20248;-72
2023/05/11 05:04:28;;;;;;;2.47;2.20;;;;;;;11.49;100.00;99881.41;5113985;28;20207;-72
2023/05/11 05:06:54;;;;;;;4.17;2.17;;;;;;;11.51;100.00;99887.25;5113367;28;20191;-72
2023/05/11 05:09:19;;;;;;;5.20;2.43;;;;;;;11.63;100.00;99892.50;5095518;28;20183;-71
2023/05/11 05:11:44;;;;;;;4.90;2.37;;;;;;;11.74;100.00;99891.00;5098471;27;20697;-71
2023/05/11 05:14:10;;;;;;;4.87;2.40;;;;;;;11.69;100.00;99891.28;5116006;27;20176;-72
2023/05/11 05:16:35;;;;;;;2.83;2.50;;;;;;;11.81;100.00;99891.41;5079459;28;20209;-71
2023/05/11 05:19:00;;;;;;;3.07;2.47;;;;;;;11.96;100.00;99898.22;5104580;28;20261;-72
2023/05/11 05:21:25;;;;;;;2.40;1.90;;;;;;;11.97;100.00;99897.31;5108100;27;20279;-72
2023/05/11 05:23:51;;;;;;;3.43;2.57;;;;;;;12.04;100.00;99902.88;5100376;28;20630;-73
2023/05/11 05:26:16;;;;;;;3.97;2.37;;;;;;;12.20;100.00;99903.56;5079489;28;20192;-73
2023/05/11 05:28:41;;;;;;;3.53;2.20;;;;;;;12.30;100.00;99898.63;5093451;28;20180;-72
2023/05/11 05:31:06;;;;;;;3.10;2.57;;;;;;;12.46;100.00;99897.63;5090842;27;20219;-74
2023/05/11 05:33:32;;;;;;;2.67;1.97;;;;;;;12.47;100.00;99900.13;5100508;28;20558;-74
2023/05/11 05:35:57;;;;;;;2.63;2.30;;;;;;;12.51;100.00;99896.41;5093136;28;20192;-74
2023/05/11 05:38:22;;;;;;;3.27;1.73;;;;;;;12.54;100.00;99900.53;5074841;28;20282;-73
2023/05/11 05:40:48;;;;;;;4.70;2.27;;;;;;;12.67;100.00;99895.41;5088442;28;20264;-72
2023/05/11 05:43:13;;;;;;;2.50;1.97;;;;;;;12.74;100.00;99900.03;5101399;28;20540;-74
2023/05/11 05:45:38;;;;;;;3.00;2.30;;;;;;;12.81;100.00;99902.22;5092839;28;20203;-74
2023/05/11 05:48:04;;;;;;;2.57;2.30;;;;;;;12.81;100.00;99908.19;5093635;28;20241;-74
2023/05/11 05:50:30;;;;;;;2.80;2.57;;;;;;;12.79;100.00;99910.06;5086043;28;20287;-73
2023/05/11 05:52:56;;;;;;;2.90;2.70;;;;;;;12.93;100.00;99906.53;5092074;28;20179;-73
2023/05/11 05:55:22;;;;;;;3.20;2.63;;;;;;;13.08;100.00;99917.59;5077026;28;20164;-73
2023/05/11 05:57:48;;;;;;;7.00;2.70;;;;;;;13.21;100.00;99915.81;5112924;28;20187;-72
2023/05/11 06:00:14;;;;;;;3.57;2.87;;;;;;;13.36;100.00;99913.94;5102457;28;20499;-72
2023/05/11 06:02:40;;;;;;;3.30;3.00;;;;;;;13.22;100.00;99909.72;5082318;28;20194;-71
2023/05/11 06:05:06;;;;;;;3.73;2.60;;;;;;;13.28;100.00;99915.41;5091877;28;20287;-73
2023/05/11 06:07:32;;;;;;;3.07;2.53;;;;;;;13.21;100.00;99915.81;5106873;28;20183;-72
2023/05/11 06:09:57;;;;;;;4.13;2.80;;;;;;;13.43;100.00;99910.97;5101786;28;20176;-67
2023/05/11 06:12:23;;;;;;;3.90;3.23;;;;;;;13.42;100.00;99909.31;5103098;27;20224;-68
2023/05/11 06:14:48;;;;;;;3.43;2.80;;;;;;;13.71;100.00;99909.84;5074171;28;20183;-72
2023/05/11 06:17:13;;;;;;;3.00;2.80;;;;;;;13.92;100.00;99914.41;5110862;28;20228;-74
2023/05/11 06:19:39;;;;;;;4.10;3.10;;;;;;;14.00;100.00;99912.97;5095573;28;20210;-73
2023/05/11 06:22:05;;;;;;;3.13;2.90;;;;;;;13.71;100.00;99918.44;5109605;27;20230;-72
2023/05/11 06:24:30;;;;;;;3.07;2.87;;;;;;;13.60;100.00;99914.97;5061071;28;20197;-73
2023/05/11 06:26:55;;;;;;;3.27;2.97;;;;;;;13.65;100.00;99912.88;5110616;28;20208;-74
2023/05/11 06:29:21;;;;;;;4.40;2.87;;;;;;;13.80;100.00;99908.38;5112199;28;20262;-70
2023/05/11 06:31:51;;;;;;;3.40;3.10;;;;;;;13.96;100.00;99905.53;5107314;27;20227;-69
2023/05/11 06:34:18;;;;;;;3.97;2.63;;;;;;;13.99;100.00;99908.72;5094866;28;20184;-70
2023/05/11 06:36:43;;;;;;;4.17;3.13;;;;;;;14.03;100.00;99904.97;5097053;28;20190;-68
2023/05/11 06:39:08;;;;;;;3.10;2.80;;;;;;;14.01;100.00;99906.81;5094203;28;20557;-69
2023/05/11 06:41:34;;;;;;;5.50;2.67;;;;;;;13.91;100.00;99905.84;5113549;27;20653;-70
2023/05/11 06:43:59;;;;;;;3.00;2.67;;;;;;;13.74;100.00;99903.63;5101094;27;20175;-69
2023/05/11 06:46:25;;;;;;;2.77;2.57;;;;;;;14.01;100.00;99906.81;5102283;28;20232;-71
2023/05/11 06:48:50;;;;;;;2.87;2.57;;;;;;;14.28;100.00;99908.34;5074556;28;20182;-72
2023/05/11 06:51:15;;;;;;;3.00;2.73;;;;;;;14.42;100.00;99912.50;5078846;27;20578;-74
2023/05/11 06:53:41;;;;;;;2.67;2.47;;;;;;;14.31;100.00;99910.72;5086185;28;20660;-73
2023/05/11 06:56:07;;;;;;;3.03;2.73;;;;;;;14.24;100.00;99913.84;5101624;28;20190;-74
2023/05/11 06:58:32;;;;;;;4.27;2.53;;;;;;;14.14;100.00;99917.13;5093696;28;20184;-73
2023/05/11 07:00:57;;;;;;;2.50;2.30;;;;;;;14.19;100.00;99915.03;5085958;27;20225;-72
2023/05/11 07:03:23;;;;;;;3.03;2.70;;;;;;;14.16;100.00;99911.84;5086893;28;20500;-74
2023/05/11 07:05:48;;;;;;;3.43;2.70;;;;;;;14.48;100.00;99916.41;5081774;28;20548;-74
2023/05/11 07:08:13;;;;;;;2.43;2.23;;;;;;;14.82;100.00;99919.09;5093037;28;20340;-73
2023/05/11 07:10:40;;;;;;;2.90;2.60;;;;;;;15.06;100.00;99913.84;5087554;28;20639;-73
2023/05/11 07:13:05;;;;;;;2.50;2.27;;;;;;;15.11;100.00;99916.09;5095224;27;20177;-73
2023/05/11 07:15:31;;;;;;;2.93;2.70;;;;;;;15.31;100.00;99919.72;5097236;28;20704;-71
2023/05/11 07:17:56;;;;;;;2.80;2.60;;;;;;;15.57;100.00;99911.69;5105757;28;20188;-72
2023/05/11 07:20:21;;;;;;;3.00;2.33;;;;;;;15.90;100.00;99921.19;5087130;28;20221;-72
2023/05/11 07:22:47;;;;;;;3.77;2.23;;;;;;;15.97;100.00;99921.50;5097877;28;20213;-72
2023/05/11 07:25:12;;;;;;;3.77;2.80;;;;;;;15.64;100.00;99918.84;5104098;28;20187;-73
2023/05/11 07:27:38;;;;;;;4.40;3.33;;;;;;;15.50;100.00;99913.91;5088379;28;20222;-71
2023/05/11 07:30:03;;;;;;;2.87;2.67;;;;;;;15.15;100.00;99920.06;5099270;27;20236;-71
2023/05/11 07:32:29;;;;;;;3.60;2.80;;;;;;;15.00;100.00;99920.28;5066759;28;20307;-72
2023/05/11 07:34:54;;;;;;;4.47;2.67;;;;;;;14.92;100.00;99920.06;5102843;28;20180;-69
2023/05/11 07:37:19;;;;;;;4.00;2.40;;;;;;;14.92;100.00;99921.81;5100501;28;20192;-69
2023/05/11 07:39:45;;;;;;;3.10;2.80;;;;;;;15.28;100.00;99918.19;5089613;28;20183;-71
2023/05/11 07:42:10;;;;;;;4.83;2.80;;;;;;;15.54;100.00;99919.69;5082385;28;20222;-70
2023/05/11 07:44:35;;;;;;;2.90;2.70;;;;;;;14.95;100.00;99916.44;5094769;28;20219;-71
2023/05/11 07:47:01;;;;;;;3.40;2.57;;;;;;;15.39;100.00;99922.53;5110991;28;20171;-69
2023/05/11 07:49:26;;;;;;;2.70;2.50;;;;;;;15.50;100.00;99913.91;5111573;28;20182;-70
2023/05/11 07:51:52;;;;;;;5.93;2.40;;;;;;;15.73;100.00;99919.09;5113859;28;20674;-71
2023/05/11 07:54:17;;;;;;;2.17;1.93;;;;;;;16.00;100.00;99915.25;5112068;28;20167;-72
2023/05/11 07:56:42;;;;;;;3.83;2.60;;;;;;;16.26;100.00;99915.72;5110441;28;20520;-72
2023/05/11 07:59:08;;;;;;;3.53;2.17;;;;;;;16.34;100.00;99915.94;5077816;28;20258;-72
2023/05/11 08:01:33;;;;;;;2.70;2.50;;;;;;;16.36;100.00;99916.66;5083641;28;20314;-71
2023/05/11 08:03:59;;;;;;;2.70;2.50;;;;;;;15.86;100.00;99916.38;5087847;28;20237;-73
2023/05/11 08:06:24;;;;;;;4.03;2.40;;;;;;;15.72;100.00;99915.66;5102806;28;20180;-72
2023/05/11 08:08:49;;;;;;;4.83;2.40;;;;;;;15.64;100.00;99918.84;5108108;28;20179;-71
2023/05/11 08:11:15;;;;;;;2.77;2.10;;;;;;;15.30;100.00;99918.88;5110954;27;20238;-72
2023/05/11 08:13:40;;;;;;;2.27;2.07;;;;;;;15.32;100.00;99914.41;5098855;28;20278;-72
2023/05/11 08:16:05;;;;;;;3.30;2.30;;;;;;;15.70;100.00;99922.72;5091098;28;20188;-71
2023/05/11 08:18:31;;;;;;;3.97;2.13;;;;;;;16.17;100.00;99919.09;5093479;28;20175;-72
2023/05/11 08:20:56;;;;;;;4.03;1.97;;;;;;;16.29;100.00;99928.47;5086829;27;20576;-71
2023/05/11 08:23:21;;;;;;;2.40;2.20;;;;;;;15.85;100.00;99914.72;5118197;27;20175;-72
2023/05/11 08:25:54;;;;;;;3.33;2.73;;;;;;;15.28;100.00;99925.13;5107499;28;20740;-73
2023/05/11 08:28:20;;;;;;;3.60;2.80;;;;;;;15.33;100.00;99923.84;5093951;28;20254;-71
2023/05/11 08:30:52;;;;;;;3.60;3.30;;;;;;;15.59;100.00;99927.94;5099228;28;20223;-71
2023/05/11 08:33:17;;;;;;;3.40;2.87;;;;;;;15.80;100.00;99922.81;5093984;28;20197;-72
2023/05/11 08:35:43;;;;;;;3.30;3.00;;;;;;;15.75;100.00;99922.38;5099127;28;20194;-70
2023/05/11 08:38:08;;;;;;;3.30;3.00;;;;;;;15.74;100.00;99918.13;5114381;28;20338;-72
2023/05/11 08:40:34;;;;;;;3.67;3.03;;;;;;;15.67;100.00;99924.75;5106175;27;20224;-72
2023/05/11 08:43:01;;;;;;;3.73;2.77;;;;;;;15.81;100.00;99924.47;5112920;27;20173;-73
2023/05/11 08:45:27;;;;;;;4.40;3.23;;;;;;;16.09;100.00;99920.53;5093348;28;20203;-72
2023/05/11 08:47:53;;;;;;;3.93;3.00;;;;;;;16.29;100.00;99924.09;5090799;28;20172;-70
2023/05/11 08:50:21;;;;;;;2.90;2.50;;;;;;;16.38;100.00;99919.91;5078305;27;20191;-72
2023/05/11 08:52:46;;;;;;;4.80;2.90;;;;;;;16.42;100.00;99925.69;5120938;27;20182;-73
2023/05/11 08:55:12;;;;;;;6.03;3.13;;;;;;;16.01;100.00;99920.31;5108210;28;20179;-73
2023/05/11 08:57:37;;;;;;;4.37;3.00;;;;;;;15.76;100.00;99924.81;5114740;28;20555;-72
2023/05/11 09:00:04;;;;;;;3.67;3.37;;;;;;;15.35;100.00;99930.69;5092847;28;20631;-73
2023/05/11 09:02:30;;;;;;;3.43;3.03;;;;;;;15.68;100.00;99929.81;5115836;27;20646;-73
2023/05/11 09:04:57;;;;;;;4.03;3.70;;;;;;;15.61;100.00;99928.66;5114183;28;20195;-71
2023/05/11 09:07:23;;;;;;;3.43;3.20;;;;;;;15.67;100.00;99922.97;5114770;27;20270;-70
2023/05/11 09:09:49;;;;;;;3.27;3.07;;;;;;;16.33;100.00;99926.47;5087081;28;20318;-73
2023/05/11 09:12:15;;;;;;;2.93;2.73;;;;;;;17.05;100.00;99924.84;5091604;27;20222;-72
2023/05/11 09:14:40;;;;;;;6.13;3.40;;;;;;;17.26;100.00;99924.81;5113789;28;20239;-70
2023/05/11 09:17:05;;;;;;;4.47;3.20;;;;;;;16.72;100.00;99934.50;5112683;28;20564;-70
2023/05/11 09:19:31;;;;;;;3.43;2.73;;;;;;;16.23;100.00;99928.97;5098845;28;20251;-70
2023/05/11 09:21:59;;;;;;;3.77;3.37;;;;;;;16.57;100.00;99923.59;5097546;27;20230;-71
2023/05/11 09:24:24;;;;;;;3.13;2.93;;;;;;;16.97;100.00;99925.50;5085837;28;20227;-71
2023/05/11 09:27:05;;;;;;;3.40;3.10;;;;;;;16.67;100.00;99924.50;5093361;28;20226;-72
2023/05/11 09:29:31;;;;;;;4.73;2.63;;;;;;;17.04;100.00;99924.06;5093591;28;20180;-71
2023/05/11 09:31:56;;;;;;;4.33;3.37;;;;;;;17.37;100.00;99922.09;5097445;28;20696;-71
2023/05/11 09:34:22;;;;;;;4.03;3.23;;;;;;;17.15;100.00;99927.50;5107356;28;20179;-72
2023/05/11 09:36:51;;;;;;;3.53;3.23;;;;;;;17.12;100.00;99922.56;5105937;28;20176;-73
2023/05/11 09:39:18;;;;;;;2.87;2.67;;;;;;;17.56;100.00;99928.31;5106670;28;20182;-71
2023/05/11 09:41:44;;;;;;;4.20;2.90;;;;;;;17.77;100.00;99920.41;5082822;27;20218;-72
2023/05/11 09:44:13;;;;;;;3.20;2.90;;;;;;;17.80;100.00;99927.13;5098937;27;20175;-74
2023/05/11 09:46:40;;;;;;;3.20;2.93;;;;;;;18.01;99.72;99927.03;5110405;28;20206;-74
2023/05/11 09:49:06;;;;;;;2.93;2.73;;;;;;;18.15;100.00;99925.84;5084127;28;20180;-73
2023/05/11 09:51:34;;;;;;;3.30;3.00;;;;;;;18.26;100.00;99923.09;5112313;27;20630;-74
2023/05/11 09:54:01;;;;;;;3.07;2.87;;;;;;;18.12;98.98;99924.31;5099308;28;20191;-73
2023/05/11 09:56:47;;;;;;;2.87;2.60;;;;;;;18.26;100.00;99917.88;5112462;28;20179;-73
2023/05/11 09:59:34;;;;;;;2.87;2.67;;;;;;;18.22;95.89;99919.09;5112863;28;20181;-72
2023/05/11 10:02:24;;;;;;;3.20;2.83;;;;;;;17.97;99.46;99916.06;5099575;27;20669;-73
2023/05/11 10:04:52;;;;;;;2.60;2.40;;;;;;;18.08;95.89;99924.72;5101497;28;20304;-73
2023/05/11 10:07:25;;;;;;;3.70;2.67;;;;;;;18.11;94.94;99922.69;5106974;28;20176;-76
2023/05/11 10:09:52;;;;;;;3.23;2.80;;;;;;;17.98;97.58;99915.13;5087142;28;20186;-71
2023/05/11 10:12:20;;;;;;;3.20;2.87;;;;;;;18.19;95.15;99914.19;5114005;27;20214;-74
2023/05/11 10:14:48;;;;;;;3.57;3.27;;;;;;;17.90;96.08;99922.78;5120308;27;20176;-73
2023/05/11 10:17:14;;;;;;;3.20;2.90;;;;;;;17.48;99.27;99926.38;5109624;27;20245;-74
2023/05/11 10:19:39;;;;;;;3.30;3.00;;;;;;;17.68;99.88;99914.25;5078683;28;20176;-73
2023/05/11 10:22:05;;;;;;;5.20;3.33;;;;;;;17.66;98.88;99913.56;5114071;27;20279;-74
2023/05/11 10:24:31;;;;;;;6.43;3.20;;;;;;;17.83;98.12;99911.25;5101085;28;20204;-73
2023/05/11 10:26:57;;;;;;;3.23;3.03;;;;;;;17.35;100.00;99918.84;5096353;28;20181;-72
2023/05/11 10:29:23;;;;;;;5.03;3.10;;;;;;;17.16;100.00;99916.97;5099856;28;20177;-70
2023/05/11 10:31:50;;;;;;;3.57;3.27;;;;;;;16.81;100.00;99910.34;5095678;27;20222;-71
2023/05/11 10:34:16;;;;;;;6.10;3.40;;;;;;;16.86;100.00;99912.56;5086599;27;20181;-74
2023/05/11 10:36:45;;;;;;;4.73;3.30;;;;;;;16.99;100.00;99913.19;5080707;28;20623;-74
2023/05/11 10:39:10;;;;;;;4.87;3.50;;;;;;;17.27;100.00;99913.47;5071500;28;20176;-73
2023/05/11 10:42:05;;;;;;;3.33;2.73;;;;;;;17.37;100.00;99914.31;5098282;27;20223;-73
2023/05/11 10:44:46;;;;;;;4.67;3.17;;;;;;;17.10;100.00;99913.13;5089837;28;20289;-71
2023/05/11 10:47:49;;;;;;;7.23;3.80;;;;;;;16.79;100.00;99909.66;5093483;28;20195;-72
2023/05/11 10:50:32;;;;;;;5.73;3.90;;;;;;;17.25;100.00;99903.19;5090693;28;20167;-70
2023/05/11 10:53:25;;;;;;;4.60;3.17;;;;;;;17.36;100.00;99907.47;5124057;27;20682;-70
2023/05/11 10:55:50;;;;;;;3.80;2.70;;;;;;;17.68;100.00;99898.63;5082848;28;20187;-71
2023/05/11 10:58:33;;;;;;;5.13;2.83;;;;;;;17.99;100.00;99901.16;5095867;28;20260;-74
2023/05/11 11:01:29;;;;;;;6.23;3.27;;;;;;;18.05;100.00;99908.41;5081224;28;20215;-74
2023/05/11 11:04:06;;;;;;;5.67;3.10;;;;;;;17.98;99.80;99904.72;5090716;28;20247;-71
2023/05/11 11:06:33;;;;;;;4.30;3.10;;;;;;;17.73;100.00;99904.25;5087318;28;20184;-74
2023/05/11 11:09:04;;;;;;;5.10;3.50;;;;;;;17.54;100.00;99905.06;5071534;28;20173;-75
2023/05/11 11:11:34;;;;;;;4.60;3.13;;;;;;;17.60;99.92;99908.91;5094344;28;20306;-73
2023/05/11 11:14:02;;;;;;;2.63;2.40;;;;;;;17.43;98.89;99895.56;5084502;28;20179;-73
2023/05/11 11:16:29;;;;;;;3.00;2.80;;;;;;;17.53;99.13;99900.81;5106225;27;20610;-72
2023/05/11 11:19:28;;;;;;;5.23;3.90;;;;;;;17.11;100.00;99903.53;5094869;28;20185;-72
2023/05/11 11:21:55;;;;;;;4.07;3.10;;;;;;;17.57;100.00;99896.97;5105102;28;20344;-72
2023/05/11 11:24:35;;;;;;;7.30;3.30;;;;;;;17.54;100.00;99892.03;5104739;28;20183;-74
2023/05/11 11:27:00;;;;;;;4.93;3.30;;;;;;;18.05;100.00;99886.78;5081790;28;20279;-66
2023/05/11 11:29:27;;;;;;;4.43;3.53;;;;;;;18.19;100.00;99890.75;5111001;28;20183;-66